createdAt,value
2019-05-23T00:00:08.806Z,18.80
2019-05-23T00:01:08.891Z,18.90
2019-05-23T00:02:08.814Z,18.60
2019-05-23T00:03:08.786Z,19.30
2019-05-23T00:04:08.764Z,19.70
2019-05-23T00:05:08.757Z,19.90
2019-05-23T00:06:08.739Z,18.70
2019-05-23T00:07:08.815Z,19.50
2019-05-23T00:08:08.723Z,18.80
2019-05-23T00:09:08.714Z,19.20
2019-05-23T00:10:08.714Z,19.20
2019-05-23T00:11:08.686Z,19.50
2019-05-23T00:12:08.671Z,20.00
2019-05-23T00:13:10.540Z,19.90
2019-05-23T00:14:08.659Z,20.10
2019-05-23T00:15:08.688Z,19.90
2019-05-23T00:16:08.632Z,19.40
2019-05-23T00:17:08.684Z,19.40
2019-05-23T00:18:08.662Z,19.20
2019-05-23T00:19:08.597Z,19.80
2019-05-23T00:20:08.584Z,19.50
2019-05-23T00:21:08.590Z,19.60
2019-05-23T00:22:08.619Z,19.60
2019-05-23T00:23:08.586Z,19.80
2019-05-23T00:24:08.565Z,19.40
2019-05-23T00:25:08.528Z,18.70
2019-05-23T00:26:08.524Z,18.90
2019-05-23T00:27:08.510Z,19.20
2019-05-23T00:28:08.519Z,18.20
2019-05-23T00:29:10.349Z,17.80
2019-05-23T00:30:08.513Z,16.50
2019-05-23T00:31:08.475Z,17.50
2019-05-23T00:32:08.455Z,15.80
2019-05-23T00:33:08.470Z,15.30
2019-05-23T00:34:08.434Z,14.90
2019-05-23T00:35:08.426Z,14.90
2019-05-23T00:36:08.418Z,15.20
2019-05-23T00:37:08.401Z,15.10
2019-05-23T00:38:08.406Z,14.60
2019-05-23T00:39:08.372Z,14.70
2019-05-23T00:40:08.365Z,13.80
2019-05-23T00:41:08.347Z,14.10
2019-05-23T00:42:08.374Z,14.20
2019-05-23T00:43:08.356Z,14.80
2019-05-23T00:44:08.321Z,14.50
2019-05-23T00:45:08.311Z,14.00
2019-05-23T00:46:08.334Z,15.20
2019-05-23T00:47:08.292Z,15.60
2019-05-23T00:48:08.325Z,16.00
2019-05-23T00:49:08.269Z,16.00
2019-05-23T00:50:08.256Z,16.80
2019-05-23T00:51:08.251Z,16.30
2019-05-23T00:52:08.261Z,17.20
2019-05-23T00:53:08.311Z,17.20
2019-05-23T00:54:08.246Z,16.80
2019-05-23T00:55:08.205Z,17.70
2019-05-23T00:56:08.210Z,16.90
2019-05-23T00:57:08.179Z,17.20
2019-05-23T00:58:08.199Z,17.10
2019-05-23T00:59:08.168Z,17.30
2019-05-23T01:00:08.180Z,17.50
2019-05-23T01:01:08.151Z,17.40
2019-05-23T01:02:08.116Z,16.90
2019-05-23T01:03:08.142Z,17.40
2019-05-23T01:04:08.148Z,17.60
2019-05-23T01:05:08.088Z,18.20
2019-05-23T01:06:08.072Z,16.80
2019-05-23T01:07:08.106Z,16.00
2019-05-23T01:08:08.082Z,16.70
2019-05-23T01:09:08.043Z,16.20
2019-05-23T01:10:08.041Z,15.50
2019-05-23T01:11:08.021Z,16.80
2019-05-23T01:12:08.019Z,16.70
2019-05-23T01:13:08.025Z,18.60
2019-05-23T01:14:08.040Z,17.20
2019-05-23T01:15:07.980Z,17.50
2019-05-23T01:16:07.975Z,17.40
2019-05-23T01:17:08.014Z,17.30
2019-05-23T01:18:07.973Z,17.00
2019-05-23T01:19:07.986Z,17.80
2019-05-23T01:20:07.921Z,18.00
2019-05-23T01:21:07.913Z,17.20
2019-05-23T01:22:07.905Z,18.20
2019-05-23T01:23:07.950Z,18.00
2019-05-23T01:24:07.891Z,18.20
2019-05-23T01:25:07.865Z,18.50
2019-05-23T01:26:07.895Z,18.20
2019-05-23T01:27:07.845Z,18.20
2019-05-23T01:28:07.837Z,18.50
2019-05-23T01:29:08.374Z,18.70
2019-05-23T01:30:07.838Z,18.60
2019-05-23T01:31:07.789Z,18.30
2019-05-23T01:32:07.812Z,18.00
2019-05-23T01:33:07.814Z,17.40
2019-05-23T01:34:07.795Z,18.50
2019-05-23T01:35:07.756Z,19.00
2019-05-23T01:36:07.750Z,19.20
2019-05-23T01:37:07.744Z,20.00
2019-05-23T01:38:07.745Z,21.00
2019-05-23T01:39:08.388Z,21.60
2019-05-23T01:40:07.722Z,21.80
2019-05-23T01:41:07.742Z,20.30
2019-05-23T01:42:07.678Z,20.40
2019-05-23T01:43:07.678Z,20.10
2019-05-23T01:44:07.698Z,19.60
2019-05-23T01:45:07.647Z,20.20
2019-05-23T01:46:07.652Z,19.30
2019-05-23T01:47:07.632Z,19.50
2019-05-23T01:48:07.615Z,18.80
2019-05-23T01:49:07.618Z,18.50
2019-05-23T01:50:07.597Z,18.10
2019-05-23T01:51:07.628Z,18.60
2019-05-23T01:52:07.598Z,18.90
2019-05-23T01:53:07.552Z,19.10
2019-05-23T01:54:07.618Z,18.30
2019-05-23T01:55:07.549Z,19.60
2019-05-23T01:56:07.531Z,19.90
2019-05-23T01:57:07.520Z,18.40
2019-05-23T01:58:07.501Z,19.50
2019-05-23T01:59:07.513Z,18.60
2019-05-23T02:00:10.748Z,19.40
2019-05-23T02:01:07.492Z,21.70
2019-05-23T02:02:07.469Z,19.80
2019-05-23T02:03:07.443Z,21.80
2019-05-23T02:04:07.531Z,19.90
2019-05-23T02:05:07.457Z,20.60
2019-05-23T02:06:07.430Z,19.70
2019-05-23T02:07:07.416Z,19.70
2019-05-23T02:08:07.402Z,19.50
2019-05-23T02:09:07.418Z,18.80
2019-05-23T02:10:07.379Z,19.40
2019-05-23T02:11:07.364Z,19.40
2019-05-23T02:12:07.346Z,19.60
2019-05-23T02:13:07.331Z,20.10
2019-05-23T02:14:07.367Z,20.70
2019-05-23T02:15:07.396Z,19.10
2019-05-23T02:16:07.324Z,20.10
2019-05-23T02:17:07.299Z,19.40
2019-05-23T02:18:07.290Z,19.70
2019-05-23T02:19:07.319Z,20.30
2019-05-23T02:20:07.303Z,19.80
2019-05-23T02:21:07.254Z,21.00
2019-05-23T02:22:07.228Z,20.30
2019-05-23T02:23:07.263Z,18.90
2019-05-23T02:24:07.239Z,19.80
2019-05-23T02:25:07.211Z,19.70
2019-05-23T02:26:07.198Z,20.20
2019-05-23T02:27:07.180Z,20.00
2019-05-23T02:28:07.176Z,19.70
2019-05-23T02:29:07.208Z,20.00
2019-05-23T02:30:07.150Z,19.40
2019-05-23T02:31:07.191Z,19.80
2019-05-23T02:32:07.121Z,20.10
2019-05-23T02:33:07.114Z,20.60
2019-05-23T02:34:07.133Z,20.70
2019-05-23T02:35:07.138Z,21.00
2019-05-23T02:36:07.086Z,21.30
2019-05-23T02:37:07.070Z,20.80
2019-05-23T02:38:07.068Z,20.00
2019-05-23T02:39:07.090Z,21.20
2019-05-23T02:40:07.051Z,21.80
2019-05-23T02:41:07.029Z,21.70
2019-05-23T02:42:07.017Z,22.50
2019-05-23T02:43:07.007Z,21.40
2019-05-23T02:44:07.017Z,20.70
2019-05-23T02:45:06.994Z,21.40
2019-05-23T02:46:06.973Z,21.90
2019-05-23T02:47:07.015Z,22.70
2019-05-23T02:48:06.957Z,23.70
2019-05-23T02:49:06.963Z,23.70
2019-05-23T02:50:06.923Z,23.20
2019-05-23T02:51:07.008Z,24.00
2019-05-23T02:52:06.916Z,23.00
2019-05-23T02:53:06.903Z,22.70
2019-05-23T02:54:06.930Z,22.10
2019-05-23T02:55:06.875Z,23.90
2019-05-23T02:56:06.854Z,22.80
2019-05-23T02:57:06.918Z,24.40
2019-05-23T02:58:06.856Z,23.90
2019-05-23T02:59:07.024Z,23.30
2019-05-23T03:00:06.812Z,23.90
2019-05-23T03:01:06.800Z,22.80
2019-05-23T03:02:06.799Z,23.40
2019-05-23T03:03:06.789Z,24.20
2019-05-23T03:04:06.793Z,24.70
2019-05-23T03:05:06.802Z,23.50
2019-05-23T03:06:06.747Z,23.80
2019-05-23T03:07:06.785Z,24.20
2019-05-23T03:08:06.775Z,25.30
2019-05-23T03:09:06.724Z,25.00
2019-05-23T03:10:06.742Z,25.00
2019-05-23T03:11:06.731Z,24.20
2019-05-23T03:12:06.683Z,25.80
2019-05-23T03:13:06.673Z,25.70
2019-05-23T03:14:06.665Z,25.80
2019-05-23T03:15:08.555Z,26.50
2019-05-23T03:16:06.674Z,27.30
2019-05-23T03:17:06.665Z,27.10
2019-05-23T03:18:06.673Z,25.90
2019-05-23T03:19:06.602Z,27.00
2019-05-23T03:20:06.621Z,26.90
2019-05-23T03:21:06.582Z,26.30
2019-05-23T03:22:06.579Z,25.90
2019-05-23T03:23:06.575Z,25.30
2019-05-23T03:24:06.554Z,25.20
2019-05-23T03:25:06.564Z,24.90
2019-05-23T03:26:06.531Z,25.30
2019-05-23T03:27:06.533Z,24.40
2019-05-23T03:28:06.514Z,24.60
2019-05-23T03:29:06.520Z,25.30
2019-05-23T03:30:06.575Z,24.40
2019-05-23T03:31:26.991Z,23.80
2019-05-23T03:32:07.459Z,25.40
2019-05-23T03:33:06.468Z,24.40
2019-05-23T03:34:06.443Z,24.60
2019-05-23T03:35:06.474Z,24.20
2019-05-23T03:36:06.447Z,24.30
2019-05-23T03:37:06.414Z,23.20
2019-05-23T03:38:06.421Z,23.50
2019-05-23T03:39:06.406Z,23.70
2019-05-23T03:40:06.411Z,22.80
2019-05-23T03:41:06.362Z,21.70
2019-05-23T03:42:06.436Z,22.40
2019-05-23T03:43:06.354Z,21.80
2019-05-23T03:44:06.329Z,23.60
2019-05-23T03:45:06.352Z,24.00
2019-05-23T03:46:06.307Z,23.10
2019-05-23T03:47:06.293Z,24.00
2019-05-23T03:48:06.293Z,24.90
2019-05-23T03:49:06.285Z,24.90
2019-05-23T03:50:06.302Z,24.10
2019-05-23T03:51:06.267Z,24.10
2019-05-23T03:52:06.237Z,24.10
2019-05-23T03:53:06.255Z,25.00
2019-05-23T03:54:06.215Z,23.90
2019-05-23T03:55:06.232Z,23.40
2019-05-23T03:56:06.199Z,24.40
2019-05-23T03:57:06.179Z,25.00
2019-05-23T03:58:06.174Z,24.70
2019-05-23T03:59:06.168Z,25.20
2019-05-23T04:00:06.209Z,24.40
2019-05-23T04:01:06.172Z,23.50
2019-05-23T04:02:06.134Z,23.30
2019-05-23T04:03:06.141Z,21.90
2019-05-23T04:04:06.116Z,21.90
2019-05-23T04:05:06.157Z,21.80
2019-05-23T04:06:06.084Z,21.80
2019-05-23T04:07:06.076Z,21.20
2019-05-23T04:08:06.076Z,21.30
2019-05-23T04:09:06.079Z,20.40
2019-05-23T04:10:06.071Z,19.90
2019-05-23T04:11:06.063Z,19.50
2019-05-23T04:12:06.022Z,18.90
2019-05-23T04:13:06.012Z,19.60
2019-05-23T04:14:06.050Z,18.90
2019-05-23T04:15:06.028Z,20.30
2019-05-23T04:16:05.972Z,19.40
2019-05-23T04:17:05.981Z,19.10
2019-05-23T04:18:05.946Z,19.40
2019-05-23T04:19:05.966Z,19.60
2019-05-23T04:20:05.963Z,19.70
2019-05-23T04:21:05.944Z,20.10
2019-05-23T04:22:05.909Z,20.20
2019-05-23T04:23:05.939Z,19.20
2019-05-23T04:24:05.886Z,20.30
2019-05-23T04:25:05.899Z,19.00
2019-05-23T04:26:05.866Z,19.10
2019-05-23T04:27:05.854Z,19.20
2019-05-23T04:28:05.854Z,19.30
2019-05-23T04:29:05.831Z,19.30
2019-05-23T04:30:05.911Z,19.20
2019-05-23T04:31:05.816Z,18.60
2019-05-23T04:32:08.895Z,18.20
2019-05-23T04:33:05.806Z,16.70
2019-05-23T04:34:05.783Z,18.20
2019-05-23T04:35:05.799Z,17.70
2019-05-23T04:36:05.749Z,17.20
2019-05-23T04:37:05.767Z,16.70
2019-05-23T04:38:05.738Z,17.10
2019-05-23T04:39:05.769Z,17.20
2019-05-23T04:40:05.742Z,16.90
2019-05-23T04:41:05.705Z,16.40
2019-05-23T04:42:05.713Z,15.80
2019-05-23T04:43:05.677Z,15.50
2019-05-23T04:44:05.704Z,15.50
2019-05-23T04:45:05.689Z,16.20
2019-05-23T04:46:05.698Z,15.30
2019-05-23T04:47:05.683Z,15.30
2019-05-23T04:48:05.626Z,15.20
2019-05-23T04:49:05.612Z,15.30
2019-05-23T04:50:05.625Z,15.10
2019-05-23T04:51:05.592Z,14.90
2019-05-23T04:52:05.595Z,15.20
2019-05-23T04:53:05.571Z,15.10
2019-05-23T04:54:05.572Z,14.90
2019-05-23T04:55:05.611Z,14.90
2019-05-23T04:56:05.530Z,15.10
2019-05-23T04:57:05.540Z,14.70
2019-05-23T04:58:05.542Z,14.90
2019-05-23T04:59:05.501Z,14.70
2019-05-23T05:00:05.580Z,14.10
2019-05-23T05:01:05.476Z,14.60
2019-05-23T05:02:05.505Z,14.50
2019-05-23T05:03:05.494Z,15.20
2019-05-23T05:04:05.455Z,14.60
2019-05-23T05:05:05.493Z,13.90
2019-05-23T05:06:05.437Z,14.90
2019-05-23T05:07:05.452Z,14.50
2019-05-23T05:08:05.709Z,14.50
2019-05-23T05:09:05.386Z,13.70
2019-05-23T05:10:05.424Z,14.00
2019-05-23T05:11:05.404Z,14.40
2019-05-23T05:12:05.371Z,14.70
2019-05-23T05:13:05.372Z,14.20
2019-05-23T05:14:05.355Z,14.90
2019-05-23T05:15:05.916Z,14.70
2019-05-23T05:16:05.316Z,13.70
2019-05-23T05:17:05.341Z,13.90
2019-05-23T05:18:05.290Z,13.70
2019-05-23T05:19:05.283Z,13.40
2019-05-23T05:20:05.305Z,13.10
2019-05-23T05:21:05.260Z,13.20
2019-05-23T05:22:05.307Z,13.30
2019-05-23T05:23:05.230Z,13.70
2019-05-23T05:24:05.289Z,13.50
2019-05-23T05:25:05.239Z,13.50
2019-05-23T05:26:05.202Z,15.00
2019-05-23T05:27:05.204Z,13.80
2019-05-23T05:28:05.248Z,14.20
2019-05-23T05:29:05.162Z,13.60
2019-05-23T05:30:05.177Z,13.40
2019-05-23T05:31:05.136Z,13.60
2019-05-23T05:32:05.128Z,13.80
2019-05-23T05:33:05.175Z,15.20
2019-05-23T05:34:05.116Z,14.80
2019-05-23T05:35:05.173Z,13.40
2019-05-23T05:36:05.102Z,14.40
2019-05-23T05:37:05.070Z,15.90
2019-05-23T05:38:05.091Z,15.60
2019-05-23T05:39:05.054Z,23.90
2019-05-23T05:40:05.038Z,16.00
2019-05-23T05:41:05.070Z,17.40
2019-05-23T05:42:05.030Z,17.00
2019-05-23T05:43:05.016Z,19.40
2019-05-23T05:44:04.993Z,21.00
2019-05-23T05:45:04.987Z,20.80
2019-05-23T05:46:05.004Z,20.40
2019-05-23T05:47:04.998Z,21.10
2019-05-23T05:48:04.959Z,21.20
2019-05-23T05:49:04.942Z,21.30
2019-05-23T05:50:04.960Z,22.50
2019-05-23T05:51:05.152Z,22.20
2019-05-23T05:52:04.903Z,22.50
2019-05-23T05:53:04.915Z,25.80
2019-05-23T05:54:04.901Z,23.00
2019-05-23T05:55:04.905Z,24.50
2019-05-23T05:56:04.923Z,24.80
2019-05-23T05:57:04.853Z,23.90
2019-05-23T05:58:04.841Z,24.00
2019-05-23T05:59:04.831Z,25.30
2019-05-23T06:00:04.926Z,26.30
2019-05-23T06:01:05.432Z,27.20
2019-05-23T06:02:04.799Z,28.00
2019-05-23T06:03:05.825Z,28.60
2019-05-23T06:04:04.775Z,28.60
2019-05-23T06:05:04.763Z,27.10
2019-05-23T06:06:04.841Z,27.80
2019-05-23T06:07:04.750Z,30.40
2019-05-23T06:08:04.782Z,30.20
2019-05-23T06:09:04.712Z,29.30
2019-05-23T06:10:04.706Z,30.60
2019-05-23T06:11:04.757Z,32.10
2019-05-23T06:12:04.689Z,29.10
2019-05-23T06:13:04.687Z,31.40
2019-05-23T06:14:04.660Z,33.00
2019-05-23T06:15:04.749Z,32.60
2019-05-23T06:16:04.686Z,31.40
2019-05-23T06:17:04.702Z,32.10
2019-05-23T06:18:04.703Z,32.20
2019-05-23T06:19:04.609Z,31.10
2019-05-23T06:20:04.720Z,31.00
2019-05-23T06:21:04.724Z,32.30
2019-05-23T06:22:04.709Z,31.30
2019-05-23T06:23:04.646Z,30.20
2019-05-23T06:24:04.688Z,32.10
2019-05-23T06:25:04.695Z,29.80
2019-05-23T06:26:07.328Z,29.70
2019-05-23T06:27:04.663Z,30.70
2019-05-23T06:28:04.514Z,32.20
2019-05-23T06:29:04.608Z,29.50
2019-05-23T06:30:05.073Z,30.90
2019-05-23T06:31:19.540Z,30.80
2019-05-23T06:32:04.462Z,31.10
2019-05-23T06:33:21.736Z,30.70
2019-05-23T06:34:05.479Z,31.10
2019-05-23T06:35:04.438Z,30.60
2019-05-23T06:36:06.456Z,29.70
2019-05-23T06:37:05.144Z,31.00
2019-05-23T06:38:04.562Z,30.30
2019-05-23T06:39:08.596Z,31.90
2019-05-23T06:40:05.534Z,28.90
2019-05-23T06:41:26.083Z,29.40
2019-05-23T06:42:04.669Z,30.40
2019-05-23T06:43:04.431Z,30.30
2019-05-23T06:44:05.319Z,29.50
2019-05-23T06:45:04.449Z,29.40
2019-05-23T06:46:06.069Z,30.20
2019-05-23T06:47:04.316Z,30.20
2019-05-23T06:48:04.373Z,28.10
2019-05-23T06:49:04.291Z,29.80
2019-05-23T06:50:04.315Z,28.90
2019-05-23T06:51:04.342Z,28.40
2019-05-23T06:52:04.248Z,29.20
2019-05-23T06:53:04.244Z,28.10
2019-05-23T06:54:04.378Z,25.60
2019-05-23T06:55:04.232Z,28.10
2019-05-23T06:56:04.204Z,28.70
2019-05-23T06:57:04.249Z,26.80
2019-05-23T06:58:04.225Z,27.50
2019-05-23T06:59:04.173Z,28.30
2019-05-23T07:00:04.297Z,28.70
2019-05-23T07:01:04.194Z,28.70
2019-05-23T07:02:40.208Z,28.20
2019-05-23T07:03:04.141Z,28.90
2019-05-23T07:04:04.150Z,27.40
2019-05-23T07:05:04.196Z,25.60
2019-05-23T07:06:04.173Z,24.90
2019-05-23T07:07:10.492Z,25.20
2019-05-23T07:08:04.142Z,26.00
2019-05-23T07:09:04.694Z,25.80
2019-05-23T07:10:04.914Z,24.90
2019-05-23T07:11:04.515Z,25.20
2019-05-23T07:12:05.008Z,24.90
2019-05-23T07:13:04.121Z,25.70
2019-05-23T07:14:04.028Z,24.50
2019-05-23T07:15:04.549Z,25.80
2019-05-23T07:16:04.312Z,26.40
2019-05-23T07:17:04.172Z,25.60
2019-05-23T07:18:03.972Z,25.70
2019-05-23T07:19:03.994Z,25.60
2019-05-23T07:20:03.997Z,24.30
2019-05-23T07:21:04.042Z,25.50
2019-05-23T07:22:07.951Z,25.10
2019-05-23T07:23:03.909Z,26.00
2019-05-23T07:24:03.986Z,25.20
2019-05-23T07:25:03.891Z,25.10
2019-05-23T07:26:03.901Z,25.80
2019-05-23T07:27:05.466Z,25.50
2019-05-23T07:28:03.871Z,25.00
2019-05-23T07:29:03.865Z,22.50
2019-05-23T07:30:03.878Z,23.70
2019-05-23T07:31:03.845Z,23.70
2019-05-23T07:32:03.853Z,23.00
2019-05-23T07:33:03.793Z,22.90
2019-05-23T07:34:03.791Z,22.30
2019-05-23T07:35:03.857Z,22.50
2019-05-23T07:36:03.887Z,23.20
2019-05-23T07:37:03.785Z,24.60
2019-05-23T07:38:03.765Z,22.60
2019-05-23T07:39:03.756Z,23.90
2019-05-23T07:40:03.756Z,23.30
2019-05-23T07:41:03.712Z,23.50
2019-05-23T07:42:04.466Z,22.80
2019-05-23T07:43:03.700Z,22.90
2019-05-23T07:44:03.693Z,23.90
2019-05-23T07:45:03.673Z,22.80
2019-05-23T07:46:03.662Z,22.10
2019-05-23T07:47:03.672Z,23.80
2019-05-23T07:48:03.929Z,24.00
2019-05-23T07:49:03.672Z,23.50
2019-05-23T07:50:03.637Z,23.50
2019-05-23T07:51:03.615Z,23.80
2019-05-23T07:52:03.638Z,24.60
2019-05-23T07:53:03.598Z,25.80
2019-05-23T07:54:03.629Z,25.30
2019-05-23T07:55:03.559Z,26.20
2019-05-23T07:56:04.388Z,26.20
2019-05-23T07:57:05.479Z,26.70
2019-05-23T07:58:03.574Z,25.90
2019-05-23T07:59:03.526Z,26.00
2019-05-23T08:00:03.523Z,27.00
2019-05-23T08:01:03.502Z,27.80
2019-05-23T08:02:03.548Z,28.00
2019-05-23T08:03:03.558Z,27.00
2019-05-23T08:04:19.617Z,26.20
2019-05-23T08:05:04.462Z,27.10
2019-05-23T08:06:03.488Z,26.60
2019-05-23T08:07:04.445Z,26.80
2019-05-23T08:08:03.481Z,27.30
2019-05-23T08:09:03.427Z,27.70
2019-05-23T08:10:03.428Z,27.90
2019-05-23T08:11:03.408Z,27.10
2019-05-23T08:12:03.422Z,26.30
2019-05-23T08:13:03.614Z,26.20
2019-05-23T08:14:03.384Z,27.30
2019-05-23T08:15:03.350Z,27.70
2019-05-23T08:16:03.343Z,26.30
2019-05-23T08:17:05.130Z,27.20
2019-05-23T08:18:03.315Z,26.80
2019-05-23T08:19:03.313Z,26.30
2019-05-23T08:20:05.187Z,23.30
2019-05-23T08:21:03.285Z,19.70
2019-05-23T08:22:03.325Z,22.90
2019-05-23T08:23:03.405Z,22.90
2019-05-23T08:24:03.284Z,23.20
2019-05-23T08:25:03.244Z,26.00
2019-05-23T08:26:03.238Z,28.80
2019-05-23T08:27:06.651Z,25.90
2019-05-23T08:28:03.215Z,25.60
2019-05-23T08:29:24.701Z,19.50
2019-05-23T08:30:04.221Z,15.20
2019-05-23T08:31:03.221Z,16.50
2019-05-23T08:32:03.247Z,17.60
2019-05-23T08:33:03.174Z,16.70
2019-05-23T08:34:03.169Z,17.10
2019-05-23T08:35:03.260Z,14.20
2019-05-23T08:36:03.213Z,16.90
2019-05-23T08:37:03.195Z,16.70
2019-05-23T08:38:03.111Z,15.30
2019-05-23T08:39:03.106Z,15.50
2019-05-23T08:40:03.094Z,16.30
2019-05-23T08:41:03.113Z,16.30
2019-05-23T08:42:03.172Z,16.70
2019-05-23T08:43:03.063Z,17.10
2019-05-23T08:44:03.048Z,16.00
2019-05-23T08:45:03.118Z,17.80
2019-05-23T08:46:03.071Z,16.80
2019-05-23T08:47:03.085Z,15.90
2019-05-23T08:48:03.040Z,17.10
2019-05-23T08:49:03.122Z,17.10
2019-05-23T08:50:03.013Z,16.30
2019-05-23T08:51:02.992Z,17.20
2019-05-23T08:52:04.665Z,16.10
2019-05-23T08:53:02.947Z,18.00
2019-05-23T08:54:02.951Z,18.00
2019-05-23T08:55:02.938Z,16.40
2019-05-23T08:56:04.950Z,17.10
2019-05-23T08:57:03.956Z,16.30
2019-05-23T08:58:02.945Z,18.00
2019-05-23T08:59:02.910Z,17.90
2019-05-23T09:00:02.883Z,18.80
2019-05-23T09:01:03.042Z,19.10
2019-05-23T09:02:03.488Z,19.80
2019-05-23T09:03:02.853Z,18.30
2019-05-23T09:04:02.857Z,18.50
2019-05-23T09:05:06.006Z,17.90
2019-05-23T09:06:03.065Z,18.20
2019-05-23T09:07:03.499Z,16.70
2019-05-23T09:08:02.840Z,16.10
2019-05-23T09:09:02.927Z,15.80
2019-05-23T09:10:02.786Z,15.90
2019-05-23T09:11:02.792Z,17.50
2019-05-23T09:12:02.803Z,16.70
2019-05-23T09:13:02.827Z,16.50
2019-05-23T09:14:02.743Z,14.60
2019-05-23T09:15:02.748Z,14.30
2019-05-23T09:16:02.922Z,15.10
2019-05-23T09:17:04.472Z,16.00
2019-05-23T09:18:02.688Z,15.90
2019-05-23T09:19:02.870Z,13.50
2019-05-23T09:20:02.714Z,14.00
2019-05-23T09:21:02.685Z,13.40
2019-05-23T09:22:03.796Z,13.00
2019-05-23T09:23:06.520Z,12.50
2019-05-23T09:24:02.878Z,13.10
2019-05-23T09:25:02.668Z,13.60
2019-05-23T09:26:02.612Z,14.00
2019-05-23T09:27:02.688Z,13.80
2019-05-23T09:28:02.597Z,14.20
2019-05-23T09:29:02.596Z,12.90
2019-05-23T09:30:02.600Z,13.50
2019-05-23T09:31:02.642Z,12.10
2019-05-23T09:32:03.510Z,10.70
2019-05-23T09:33:02.544Z,10.80
2019-05-23T09:34:02.528Z,11.70
2019-05-23T09:35:19.200Z,11.80
2019-05-23T09:36:03.510Z,11.80
2019-05-23T09:37:02.526Z,11.20
2019-05-23T09:38:02.487Z,11.20
2019-05-23T09:39:02.504Z,10.60
2019-05-23T09:40:02.481Z,11.50
2019-05-23T09:41:02.548Z,11.20
2019-05-23T09:42:02.485Z,11.10
2019-05-23T09:43:02.437Z,10.00
2019-05-23T09:44:02.459Z,9.50
2019-05-23T09:45:02.495Z,8.40
2019-05-23T09:46:02.457Z,9.50
2019-05-23T09:47:02.459Z,8.10
2019-05-23T09:48:02.394Z,7.80
2019-05-23T09:49:02.393Z,7.30
2019-05-23T09:50:02.367Z,7.40
2019-05-23T09:51:02.396Z,7.50
2019-05-23T09:52:02.394Z,7.60
2019-05-23T09:53:02.387Z,7.60
2019-05-23T09:54:02.320Z,7.50
2019-05-23T09:55:02.310Z,7.50
2019-05-23T09:56:02.454Z,7.90
2019-05-23T09:57:02.328Z,6.90
2019-05-23T09:58:02.291Z,7.30
2019-05-23T09:59:02.281Z,6.90
2019-05-23T10:00:02.431Z,7.30
2019-05-23T10:01:02.292Z,8.00
2019-05-23T10:02:02.287Z,7.40
2019-05-23T10:03:02.230Z,7.20
2019-05-23T10:04:02.223Z,7.80
2019-05-23T10:05:02.201Z,7.60
2019-05-23T10:06:02.206Z,7.60
2019-05-23T10:07:02.222Z,7.20
2019-05-23T10:08:02.189Z,7.40
2019-05-23T10:09:02.167Z,8.00
2019-05-23T10:10:02.158Z,7.30
2019-05-23T10:11:02.192Z,7.80
2019-05-23T10:12:02.132Z,8.10
2019-05-23T10:13:02.173Z,8.50
2019-05-23T10:14:02.167Z,8.60
2019-05-23T10:15:02.128Z,8.10
2019-05-23T10:16:02.152Z,8.20
2019-05-23T10:17:02.091Z,9.40
2019-05-23T10:18:02.098Z,8.20
2019-05-23T10:19:02.060Z,8.70
2019-05-23T10:20:02.053Z,8.10
2019-05-23T10:21:02.099Z,8.00
2019-05-23T10:22:02.028Z,8.30
2019-05-23T10:23:02.098Z,7.90
2019-05-23T10:24:02.016Z,7.30
2019-05-23T10:25:01.994Z,7.10
2019-05-23T10:26:02.005Z,7.30
2019-05-23T10:27:01.985Z,7.10
2019-05-23T10:28:02.040Z,7.70
2019-05-23T10:29:01.962Z,8.30
2019-05-23T10:30:01.972Z,8.80
2019-05-23T10:31:01.943Z,7.80
2019-05-23T10:32:01.923Z,8.30
2019-05-23T10:33:01.978Z,7.90
2019-05-23T10:34:01.927Z,8.00
2019-05-23T10:35:01.902Z,7.60
2019-05-23T10:36:01.886Z,7.50
2019-05-23T10:37:01.878Z,7.20
2019-05-23T10:38:01.898Z,8.00
2019-05-23T10:39:01.887Z,7.70
2019-05-23T10:40:01.883Z,8.90
2019-05-23T10:41:01.840Z,9.40
2019-05-23T10:42:01.828Z,9.10
2019-05-23T10:43:01.861Z,9.30
2019-05-23T10:44:01.929Z,8.80
2019-05-23T10:45:01.856Z,8.90
2019-05-23T10:46:01.787Z,9.50
2019-05-23T10:47:01.827Z,8.70
2019-05-23T10:48:01.958Z,9.30
2019-05-23T10:49:01.758Z,9.70
2019-05-23T10:50:07.351Z,9.00
2019-05-23T10:51:02.795Z,9.50
2019-05-23T10:52:01.727Z,8.90
2019-05-23T10:53:01.771Z,9.50
2019-05-23T10:54:01.699Z,9.70
2019-05-23T10:55:01.811Z,9.40
2019-05-23T10:56:01.697Z,10.10
2019-05-23T10:57:01.720Z,10.20
2019-05-23T10:58:01.737Z,9.30
2019-05-23T10:59:01.651Z,9.10
2019-05-23T11:00:01.643Z,9.20
2019-05-23T11:01:01.690Z,9.20
2019-05-23T11:02:01.648Z,9.10
2019-05-23T11:03:01.680Z,8.60
2019-05-23T11:04:01.596Z,8.20
2019-05-23T11:05:12.240Z,8.30
2019-05-23T11:06:15.029Z,9.00
2019-05-23T11:07:02.624Z,9.30
2019-05-23T11:08:01.590Z,9.10
2019-05-23T11:09:01.569Z,9.70
2019-05-23T11:10:01.540Z,9.20
2019-05-23T11:11:01.528Z,9.90
2019-05-23T11:12:06.304Z,9.90
2019-05-23T11:13:01.633Z,9.70
2019-05-23T11:14:02.612Z,10.80
2019-05-23T11:15:01.703Z,10.60
2019-05-23T11:16:01.521Z,9.70
2019-05-23T11:17:03.226Z,9.50
2019-05-23T11:18:01.663Z,10.40
2019-05-23T11:19:01.577Z,9.80
2019-05-23T11:20:01.594Z,9.00
2019-05-23T11:21:01.444Z,8.70
2019-05-23T11:22:01.604Z,9.10
2019-05-23T11:23:03.727Z,8.50
2019-05-23T11:24:01.588Z,8.80
2019-05-23T11:25:02.402Z,8.90
2019-05-23T11:26:02.639Z,8.50
2019-05-23T11:27:01.908Z,8.70
2019-05-23T11:28:03.254Z,9.30
2019-05-23T11:29:01.360Z,9.90
2019-05-23T11:30:01.526Z,10.00
2019-05-23T11:31:01.489Z,10.20
2019-05-23T11:32:01.383Z,9.40
2019-05-23T11:33:10.031Z,9.30
2019-05-23T11:34:01.308Z,9.90
2019-05-23T11:35:01.344Z,9.50
2019-05-23T11:36:01.307Z,8.50
2019-05-23T11:37:01.262Z,9.10
2019-05-23T11:38:34.036Z,8.80
2019-05-23T11:39:01.352Z,8.50
2019-05-23T11:40:01.247Z,9.50
2019-05-23T11:41:01.608Z,10.90
2019-05-23T11:42:01.310Z,10.50
2019-05-23T11:44:51.717Z,10.90
2019-05-23T11:45:51.644Z,11.30
2019-05-23T11:46:51.795Z,10.70
2019-05-23T11:48:01.084Z,11.30
2019-05-23T11:48:51.879Z,10.80
2019-05-23T11:49:51.621Z,10.30
2019-05-23T11:50:51.816Z,9.40
2019-05-23T11:51:51.497Z,9.20
2019-05-23T11:52:56.081Z,10.00
2019-05-23T11:54:06.581Z,10.30
2019-05-23T11:54:52.901Z,11.30
2019-05-23T11:55:54.424Z,10.70
2019-05-23T11:56:51.458Z,11.30
2019-05-23T11:57:54.822Z,11.50
2019-05-23T11:58:51.969Z,11.80
2019-05-23T11:59:51.467Z,12.20
2019-05-23T12:00:51.543Z,11.60
2019-05-23T12:03:29.387Z,10.70
2019-05-23T12:04:29.204Z,9.70
2019-05-23T12:05:29.135Z,9.80
2019-05-23T12:06:29.132Z,10.70
2019-05-23T12:07:29.171Z,11.40
2019-05-23T12:08:29.170Z,12.10
2019-05-23T12:09:29.126Z,12.80
2019-05-23T12:10:29.111Z,11.50
2019-05-23T12:11:29.158Z,12.40
2019-05-23T12:12:29.067Z,11.10
2019-05-23T12:13:29.227Z,11.20
2019-05-23T12:14:29.076Z,11.20
2019-05-23T12:15:29.034Z,12.00
2019-05-23T12:16:29.029Z,13.00
2019-05-23T12:17:29.031Z,12.30
2019-05-23T12:18:30.011Z,12.80
2019-05-23T12:19:29.133Z,12.30
2019-05-23T12:20:29.853Z,11.50
2019-05-23T12:21:28.992Z,13.10
2019-05-23T12:22:28.984Z,12.50
2019-05-23T12:23:29.089Z,12.30
2019-05-23T12:24:29.219Z,12.00
2019-05-23T12:25:28.950Z,12.30
2019-05-23T12:26:28.936Z,12.90
2019-05-23T12:27:28.922Z,13.30
2019-05-23T12:28:28.990Z,12.70
2019-05-23T12:29:28.907Z,13.00
2019-05-23T12:30:28.913Z,13.30
2019-05-23T12:31:28.874Z,12.80
2019-05-23T12:32:28.865Z,13.10
2019-05-23T12:33:28.963Z,13.10
2019-05-23T12:34:28.886Z,12.80
2019-05-23T12:35:28.843Z,12.90
2019-05-23T12:36:28.885Z,12.50
2019-05-23T12:37:28.821Z,13.00
2019-05-23T12:38:28.868Z,12.90
2019-05-23T12:39:28.814Z,12.80
2019-05-23T12:40:28.951Z,12.20
2019-05-23T12:41:28.826Z,12.40
2019-05-23T12:42:28.789Z,11.90
2019-05-23T12:43:28.821Z,13.10
2019-05-23T12:44:28.807Z,12.90
2019-05-23T12:45:29.408Z,12.10
2019-05-23T12:46:35.870Z,12.50
2019-05-23T12:47:39.554Z,12.40
2019-05-23T12:48:36.759Z,13.00
2019-05-23T12:49:32.006Z,13.50
2019-05-23T12:50:29.954Z,14.70
2019-05-23T12:51:29.269Z,14.00
2019-05-23T12:52:28.698Z,13.20
2019-05-23T12:53:28.698Z,12.30
2019-05-23T12:54:28.752Z,12.70
2019-05-23T12:55:29.451Z,13.10
2019-05-23T12:56:28.629Z,13.30
2019-05-23T12:57:28.636Z,12.20
2019-05-23T12:58:28.623Z,12.30
2019-05-23T12:59:28.640Z,13.00